Hovedside
METAR-TAF:

METAR-TAF

Lufthavner :

Cristiano Ronaldo internasjonale lufthavn

Funchal, Madeira, Portugal

breddegrad: 32-41-52N, lengdegrad: 016-46-28W, høyde over havet: 59 m

Gjeldene værobservasjon

Denne rapporten ble laget for 27 minutter siden, klokken 20:30 UTC
Vind 9 kt fra Nord, skiftende mellom Nord-nordvest og Nord-nordøst
Temperatur 22°C
Luftfuktighet 41%
Trykk 1020 hPa
Sikt 10 km eller mer
ingen skyer under 1500 m og ingen bygeskyer

METAR: LPMA 122030Z 01009KT 330V030 CAVOK 22/08 Q1020

Tid: 21:57 (20:57 UTC)

Varsel

Denne rapporten ble laget for 3 timer og 57 minutter siden, klokken 17:00 UTC
Varsel gyldig fra 12. klokken 18 UTC til 13. klokken 18 UTC
Vind 13 kt fra Nord-nordøst
Sikt 10 km eller mer
Få skyer i en høyde av 1500 ft

TAF: LPMA 121700Z 1218/1318 03013KT 9999 FEW015

Værobservasjoner og værvarsel for over 4000 flyplasser (METAR- og TAF-rapporter).

Tilgjengelige stasjoner er representert av de røde og gule prikkene på kartet.

Hold musepekeren over prikken for å se navnet på stasjonen.

Klikk så for å se værobservasjoner og -varsler.

For å forandre kartet kan du klikke på den grønne knappen med svart kryss for å zoome inn, på den grønne knappen med strek for å zoome ut, eller på de grønne pilene for å se tilstøtende kart.


METAR-TAF: